Time;durP1;ratioP1;P1;durP2;ratioP2;P2;SDS_P1;SDS_P2;PMS_P1;PMS_P2;Temp;Humidity;BMP_temperature;BMP_pressure;BME280_temperature;BME280_humidity;BME280_pressure;Samples;Min_cycle;Max_cycle;Signal;HPM_P1;HPM_P2
2021/11/19 00:01:27;;;;;;;22.50;13.65;;;6.00;99.90;;;;;;5024160;28;20064;-82
2021/11/19 00:03:53;;;;;;;24.30;13.73;;;4.90;99.90;;;;;;5040598;28;20032;-82
2021/11/19 00:06:18;;;;;;;23.83;13.65;;;4.90;99.90;;;;;;5023293;28;20035;-82
2021/11/19 00:08:45;;;;;;;21.23;12.50;;;5.30;99.90;;;;;;5040972;28;20096;-82
2021/11/19 00:11:14;;;;;;;20.98;13.05;;;7.00;99.90;;;;;;5025471;28;20029;-82
2021/11/19 00:13:40;;;;;;;23.77;13.60;;;4.50;99.90;;;;;;5040531;28;20370;-82
2021/11/19 00:16:06;;;;;;;22.80;12.95;;;4.60;99.90;;;;;;5040133;28;20393;-82
2021/11/19 00:18:32;;;;;;;24.13;13.93;;;5.30;99.90;;;;;;5058127;28;20096;-82
2021/11/19 00:20:58;;;;;;;25.17;14.15;;;4.40;99.90;;;;;;5042894;28;20083;-82
2021/11/19 00:23:24;;;;;;;22.27;13.60;;;4.70;99.90;;;;;;5057433;28;20050;-82
2021/11/19 00:25:51;;;;;;;26.50;14.00;;;4.30;99.90;;;;;;5039041;28;20478;-82
2021/11/19 00:28:17;;;;;;;28.00;13.77;;;4.30;99.90;;;;;;5006874;28;20025;-82
2021/11/19 00:30:45;;;;;;;21.98;13.52;;;4.50;99.90;;;;;;5040052;28;20029;-82
2021/11/19 00:33:11;;;;;;;24.60;13.55;;;6.00;99.90;;;;;;5039964;28;20033;-81
2021/11/19 00:35:40;;;;;;;23.55;12.98;;;6.50;99.90;;;;;;5023665;28;20032;-82
2021/11/19 00:38:08;;;;;;;22.70;14.05;;;5.70;99.90;;;;;;5041776;28;20029;-82
2021/11/19 00:40:42;;;;;;;25.50;13.32;;;6.30;99.90;;;;;;5059027;28;20056;-82
2021/11/19 00:43:08;;;;;;;18.58;12.00;;;4.40;99.90;;;;;;5040081;28;20036;-82
2021/11/19 00:45:35;;;;;;;24.55;12.80;;;6.90;99.90;;;;;;5038503;28;20021;-82
2021/11/19 00:48:02;;;;;;;21.42;12.13;;;4.40;99.90;;;;;;5023687;28;20033;-81
2021/11/19 00:50:32;;;;;;;25.70;14.02;;;4.70;99.90;;;;;;5039317;28;20045;-82
2021/11/19 00:52:57;;;;;;;22.13;12.70;;;5.10;99.90;;;;;;5056909;28;20075;-82
2021/11/19 00:55:23;;;;;;;21.38;13.55;;;6.80;99.90;;;;;;5038932;28;20029;-81
2021/11/19 00:57:49;;;;;;;21.55;12.65;;;4.60;99.90;;;;;;5037939;28;20180;-82
2021/11/19 01:00:19;;;;;;;25.27;14.10;;;4.60;99.90;;;;;;5040186;28;20033;-81
2021/11/19 01:02:45;;;;;;;20.80;12.73;;;5.50;99.90;;;;;;5039434;28;20021;-82
2021/11/19 01:05:10;;;;;;;21.73;13.15;;;4.60;99.90;;;;;;5039044;28;20025;-81
2021/11/19 01:07:36;;;;;;;23.75;13.02;;;4.70;99.90;;;;;;5039476;28;20025;-82
2021/11/19 01:10:11;;;;;;;23.83;13.20;;;5.40;99.90;;;;;;5057723;28;20040;-81
2021/11/19 01:12:37;;;;;;;23.88;13.65;;;4.90;99.90;;;;;;5039939;28;20104;-82
2021/11/19 01:15:26;;;;;;;22.00;12.75;;;4.80;99.90;;;;;;5023120;28;20124;-82
2021/11/19 01:17:59;;;;;;;32.10;13.52;;;5.70;99.90;;;;;;5026714;23;20038;-82
2021/11/19 01:20:27;;;;;;;23.75;13.20;;;4.80;99.90;;;;;;4982749;28;20046;-84
2021/11/19 01:22:55;;;;;;;24.45;13.13;;;4.90;99.90;;;;;;4993311;28;20034;-84
2021/11/19 01:25:25;;;;;;;23.08;13.07;;;4.90;99.90;;;;;;4961799;28;20030;-84
2021/11/19 01:27:51;;;;;;;24.58;13.90;;;4.90;99.90;;;;;;4966165;28;20031;-84
2021/11/19 01:30:21;;;;;;;24.88;13.02;;;4.90;99.90;;;;;;4994585;28;20111;-82
2021/11/19 01:32:47;;;;;;;25.00;13.30;;;5.10;99.90;;;;;;5005948;28;20027;-83
2021/11/19 01:35:14;;;;;;;21.63;12.80;;;5.00;99.90;;;;;;4986395;28;20472;-83
2021/11/19 01:37:40;;;;;;;23.73;14.57;;;5.90;99.90;;;;;;4987553;28;20079;-83
2021/11/19 01:40:09;;;;;;;24.52;12.80;;;5.00;99.90;;;;;;4972869;28;20035;-84
2021/11/19 01:42:40;;;;;;;23.52;13.88;;;5.10;99.90;;;;;;4988991;28;20037;-82
2021/11/19 01:45:19;;;;;;;32.85;13.73;;;5.90;99.90;;;;;;4990954;28;20015;-83
2021/11/19 01:47:48;;;;;;;25.50;13.82;;;5.10;99.90;;;;;;4978405;28;20023;-82
2021/11/19 01:50:26;;;;;;;24.30;14.07;;;5.20;99.90;;;;;;4993441;28;20042;-84
2021/11/19 01:53:12;;;;;;;27.08;13.48;;;5.20;99.90;;;;;;4961465;28;20450;-84
2021/11/19 01:55:49;;;;;;;23.08;13.27;;;5.20;99.90;;;;;;4966101;28;20034;-84
2021/11/19 01:58:23;;;;;;;21.30;11.75;;;5.80;99.90;;;;;;4984944;28;20046;-83
2021/11/19 02:00:51;;;;;;;23.50;13.45;;;5.20;99.90;;;;;;4966293;28;20443;-82
2021/11/19 02:03:22;;;;;;;26.73;13.38;;;5.20;99.90;;;;;;4983697;28;20034;-83
2021/11/19 02:05:57;;;;;;;24.08;13.48;;;5.30;99.90;;;;;;4983032;28;20094;-84
2021/11/19 02:08:25;;;;;;;33.45;13.57;;;5.20;99.90;;;;;;4986493;28;20101;-84
2021/11/19 02:11:22;;;;;;;33.85;14.45;;;5.30;99.90;;;;;;5006821;28;20049;-82
2021/11/19 02:14:13;;;;;;;23.67;13.40;;;5.30;99.90;;;;;;4996853;28;20034;-83
2021/11/19 02:16:46;;;;;;;28.23;13.05;;;5.30;99.90;;;;;;4979051;28;20034;-84
2021/11/19 02:19:33;;;;;;;25.17;13.57;;;5.40;99.90;;;;;;4973390;28;20038;-84
2021/11/19 02:22:06;;;;;;;25.08;13.68;;;5.40;99.90;;;;;;5001241;28;20550;-84
2021/11/19 02:24:52;;;;;;;31.77;14.27;;;5.50;99.90;;;;;;5000536;28;20522;-84
2021/11/19 02:27:29;;;;;;;26.95;14.35;;;5.30;99.90;;;;;;4974503;28;20070;-84
2021/11/19 02:30:03;;;;;;;27.42;13.55;;;5.40;99.90;;;;;;4986230;28;20062;-84
2021/11/19 02:32:35;;;;;;;26.35;13.50;;;5.50;99.90;;;;;;4981971;28;20078;-85
2021/11/19 02:35:01;;;;;;;27.02;13.30;;;5.50;99.90;;;;;;4964168;28;20037;-83
2021/11/19 02:40:10;;;;;;;27.88;13.77;;;5.50;99.90;;;;;;5375979;22;20053;-82
2021/11/19 02:42:41;;;;;;;28.95;15.10;;;5.50;99.90;;;;;;5012912;28;20029;-82
2021/11/19 02:45:19;;;;;;;32.10;14.45;;;5.50;99.90;;;;;;5035373;28;20038;-82
2021/11/19 02:47:44;;;;;;;27.00;14.73;;;6.40;99.90;;;;;;5017733;28;20424;-82
2021/11/19 02:50:12;;;;;;;25.90;13.32;;;5.60;99.90;;;;;;5034991;28;20024;-83
2021/11/19 02:52:40;;;;;;;31.33;15.45;;;5.60;99.90;;;;;;5016340;28;20436;-82
2021/11/19 02:55:19;;;;;;;25.55;13.63;;;5.60;99.90;;;;;;5024827;28;20029;-84
2021/11/19 02:57:45;;;;;;;31.83;16.02;;;5.60;99.90;;;;;;5035159;28;20032;-83
2021/11/19 03:00:16;;;;;;;28.65;14.05;;;5.90;99.90;;;;;;5034563;28;20030;-83
2021/11/19 03:02:42;;;;;;;30.00;14.40;;;5.60;99.90;;;;;;5035195;28;20026;-83
2021/11/19 03:05:12;;;;;;;28.75;15.52;;;5.60;99.90;;;;;;5036043;28;20022;-84
2021/11/19 03:07:38;;;;;;;29.88;14.75;;;5.70;99.90;;;;;;5013493;28;20022;-83
2021/11/19 03:10:13;;;;;;;34.72;15.15;;;5.70;99.90;;;;;;5016253;28;20458;-84
2021/11/19 03:12:39;;;;;;;30.40;14.65;;;5.70;99.90;;;;;;5003573;28;20025;-84
2021/11/19 03:15:13;;;;;;;35.03;15.60;;;5.70;99.90;;;;;;5019607;28;20059;-84
2021/11/19 03:17:38;;;;;;;31.70;15.00;;;5.70;99.90;;;;;;5036835;28;20033;-84
2021/11/19 03:20:07;;;;;;;30.88;15.25;;;5.70;99.90;;;;;;5038029;28;20030;-84
2021/11/19 03:22:33;;;;;;;34.20;15.32;;;5.70;99.90;;;;;;5033889;28;20057;-84
2021/11/19 03:24:59;;;;;;;29.63;15.82;;;5.80;99.90;;;;;;5018719;28;20483;-83
2021/11/19 03:27:28;;;;;;;32.10;16.75;;;5.70;99.90;;;;;;5020302;28;20096;-83
2021/11/19 03:29:54;;;;;;;34.08;16.40;;;6.10;99.90;;;;;;5019528;28;20035;-83
2021/11/19 03:32:23;;;;;;;27.90;15.48;;;5.80;99.90;;;;;;5015884;28;20022;-83
2021/11/19 03:34:49;;;;;;;30.17;14.93;;;5.80;99.90;;;;;;5034674;28;20038;-84
2021/11/19 03:37:15;;;;;;;30.40;14.30;;;5.60;99.90;;;;;;5016816;28;20083;-83
2021/11/19 03:39:41;;;;;;;32.35;14.82;;;7.60;99.90;;;;;;5015181;28;20108;-83
2021/11/19 03:42:10;;;;;;;32.00;14.48;;;6.20;99.90;;;;;;5038156;28;20030;-83
2021/11/19 03:44:53;;;;;;;28.17;15.60;;;5.90;99.90;;;;;;5033902;28;20026;-83
2021/11/19 03:47:26;;;;;;;29.08;15.45;;;6.00;99.90;;;;;;5018582;28;20383;-84
2021/11/19 03:49:54;;;;;;;26.42;14.00;;;5.70;99.90;;;;;;5032452;28;20056;-84
2021/11/19 03:52:40;;;;;;;29.05;14.40;;;5.90;99.90;;;;;;5023344;28;20030;-83
2021/11/19 03:55:16;;;;;;;27.98;14.52;;;6.50;99.90;;;;;;5038580;28;20037;-84
2021/11/19 03:57:43;;;;;;;23.77;13.57;;;6.00;99.90;;;;;;5034556;28;20475;-84
2021/11/19 04:00:13;;;;;;;24.48;13.02;;;6.00;99.90;;;;;;5038232;28;20030;-84
2021/11/19 04:02:39;;;;;;;27.27;14.48;;;6.00;99.90;;;;;;5033702;28;20124;-84
2021/11/19 04:05:06;;;;;;;30.70;13.82;;;5.90;99.90;;;;;;5028982;28;20061;-83
2021/11/19 04:07:31;;;;;;;31.73;13.48;;;6.10;99.90;;;;;;5049815;28;20088;-84
2021/11/19 04:09:57;;;;;;;27.88;14.02;;;6.10;99.90;;;;;;5041583;28;20033;-84
2021/11/19 04:12:23;;;;;;;28.65;14.27;;;7.60;99.90;;;;;;5031374;28;20030;-84
2021/11/19 04:14:50;;;;;;;32.40;15.38;;;6.10;99.90;;;;;;5014022;28;20041;-83
2021/11/19 04:17:16;;;;;;;34.63;15.55;;;6.10;99.90;;;;;;4996240;28;20038;-83
2021/11/19 04:19:42;;;;;;;28.98;14.32;;;5.90;99.90;;;;;;5020712;28;20026;-83
2021/11/19 04:22:12;;;;;;;29.77;14.02;;;7.20;99.90;;;;;;5034065;28;20067;-84
2021/11/19 04:24:46;;;;;;;27.48;13.95;;;6.10;99.90;;;;;;5009062;28;20026;-84
2021/11/19 04:27:12;;;;;;;31.33;14.35;;;6.10;99.90;;;;;;5015065;28;20360;-83
2021/11/19 04:29:38;;;;;;;27.98;14.00;;;6.20;99.90;;;;;;5032619;28;20022;-83
2021/11/19 04:32:05;;;;;;;28.42;13.45;;;6.20;99.90;;;;;;5034748;28;20080;-84
2021/11/19 04:34:31;;;;;;;27.27;14.13;;;6.20;99.90;;;;;;5033506;28;20021;-83
2021/11/19 04:36:57;;;;;;;30.17;14.52;;;6.20;99.90;;;;;;5016747;28;20108;-83
2021/11/19 04:39:23;;;;;;;26.75;14.32;;;6.20;99.90;;;;;;5021528;28;20068;-83
2021/11/19 04:41:49;;;;;;;25.20;13.93;;;7.70;99.90;;;;;;5015952;28;20046;-83
2021/11/19 04:44:15;;;;;;;28.08;13.65;;;6.30;99.90;;;;;;5033893;28;20117;-83
2021/11/19 04:46:43;;;;;;;30.17;14.30;;;7.80;99.90;;;;;;5030798;28;20046;-83
2021/11/19 04:49:09;;;;;;;31.08;14.57;;;6.30;99.90;;;;;;5014846;28;20033;-83
2021/11/19 04:51:37;;;;;;;29.95;14.63;;;6.20;99.90;;;;;;5014097;28;20506;-83
2021/11/19 04:54:04;;;;;;;31.85;14.00;;;7.30;99.90;;;;;;5014100;28;20398;-83
2021/11/19 04:56:30;;;;;;;27.38;14.35;;;7.60;99.90;;;;;;4997113;28;20026;-83
2021/11/19 04:58:56;;;;;;;28.75;13.90;;;7.80;99.90;;;;;;5013759;28;20033;-83
2021/11/19 05:01:25;;;;;;;32.25;14.23;;;6.20;99.90;;;;;;5015599;28;20033;-84
2021/11/19 05:03:51;;;;;;;29.70;13.75;;;8.10;99.90;;;;;;5034086;28;20069;-84
2021/11/19 05:06:17;;;;;;;28.15;14.45;;;6.30;99.90;;;;;;5030130;28;20038;-84
2021/11/19 05:08:43;;;;;;;24.98;14.55;;;6.30;99.90;;;;;;5016700;28;20029;-84
2021/11/19 05:11:19;;;;;;;29.67;14.20;;;6.30;99.90;;;;;;5035947;28;20030;-84
2021/11/19 05:13:45;;;;;;;35.22;15.90;;;6.20;99.90;;;;;;5022912;28;20041;-84
2021/11/19 05:16:13;;;;;;;30.65;14.20;;;6.30;99.90;;;;;;5017846;28;20034;-84
2021/11/19 05:18:41;;;;;;;26.58;14.30;;;6.30;99.90;;;;;;5026363;28;20060;-84
2021/11/19 05:21:09;;;;;;;27.02;14.68;;;6.30;99.90;;;;;;5035504;28;20030;-84
2021/11/19 05:23:34;;;;;;;31.30;14.63;;;6.90;99.90;;;;;;5035610;28;20029;-83
2021/11/19 05:26:00;;;;;;;29.38;15.18;;;6.30;99.90;;;;;;5017134;28;20037;-84
2021/11/19 05:28:27;;;;;;;26.38;13.52;;;6.30;99.90;;;;;;5017453;28;20053;-84
2021/11/19 05:30:53;;;;;;;31.25;15.50;;;6.20;99.90;;;;;;5017965;28;20018;-84
2021/11/19 05:33:21;;;;;;;23.70;13.38;;;6.20;99.90;;;;;;5036654;28;20036;-84
2021/11/19 05:35:49;;;;;;;27.05;13.40;;;6.40;99.90;;;;;;5039297;28;20026;-84
2021/11/19 05:38:16;;;;;;;24.42;13.40;;;6.20;99.90;;;;;;5025362;28;20013;-83
2021/11/19 05:40:42;;;;;;;28.15;13.98;;;6.40;99.90;;;;;;5037606;28;20041;-83
2021/11/19 05:43:08;;;;;;;25.85;12.60;;;7.80;99.90;;;;;;5031622;28;20040;-84
2021/11/19 05:45:34;;;;;;;25.60;13.63;;;6.50;99.90;;;;;;5021509;28;20134;-84
2021/11/19 05:48:00;;;;;;;22.38;12.98;;;6.50;99.90;;;;;;5037434;28;20020;-84
2021/11/19 05:50:31;;;;;;;21.75;11.82;;;6.50;99.90;;;;;;5039875;28;20033;-83
2021/11/19 05:52:57;;;;;;;22.42;11.32;;;6.50;99.90;;;;;;5041188;28;20029;-84
2021/11/19 05:55:25;;;;;;;23.15;10.80;;;6.50;99.90;;;;;;5024293;28;20057;-84
2021/11/19 05:57:51;;;;;;;21.60;9.88;;;6.70;99.90;;;;;;5034509;28;20071;-84
2021/11/19 06:00:22;;;;;;;19.92;10.02;;;7.40;99.90;;;;;;5032424;28;20026;-83
2021/11/19 06:02:50;;;;;;;16.20;9.00;;;6.70;99.90;;;;;;5052406;28;20025;-84
2021/11/19 06:05:15;;;;;;;18.42;9.85;;;6.70;99.90;;;;;;5053008;28;20014;-82
2021/11/19 06:07:41;;;;;;;24.15;9.32;;;6.60;99.90;;;;;;5033649;28;20033;-84
2021/11/19 06:10:09;;;;;;;15.77;8.88;;;7.20;99.90;;;;;;5026981;28;20033;-83
2021/11/19 06:12:40;;;;;;;16.75;9.48;;;7.00;99.90;;;;;;5039424;28;20034;-83
2021/11/19 06:15:14;;;;;;;16.77;9.88;;;8.60;99.90;;;;;;5031088;28;20033;-83
2021/11/19 06:17:43;;;;;;;18.00;9.40;;;6.80;99.90;;;;;;5026053;28;20025;-83
2021/11/19 06:20:17;;;;;;;16.38;9.20;;;6.60;99.90;;;;;;5039391;28;20056;-84
2021/11/19 06:22:48;;;;;;;23.08;9.43;;;6.80;99.90;;;;;;5040068;28;20559;-84
2021/11/19 06:25:17;;;;;;;21.02;9.43;;;6.80;99.90;;;;;;5001439;28;20044;-84
2021/11/19 06:27:43;;;;;;;17.45;9.00;;;8.20;99.90;;;;;;5038021;28;20484;-84
2021/11/19 06:30:13;;;;;;;14.60;7.80;;;7.00;99.90;;;;;;5019754;28;20068;-83
2021/11/19 06:32:38;;;;;;;15.52;8.23;;;6.70;99.90;;;;;;5034532;28;20470;-83
2021/11/19 06:35:05;;;;;;;13.32;7.13;;;6.60;99.90;;;;;;5040208;28;20040;-83
2021/11/19 06:37:31;;;;;;;13.52;7.40;;;6.90;99.90;;;;;;5041113;28;20029;-83
2021/11/19 06:39:57;;;;;;;14.70;7.45;;;6.90;99.90;;;;;;5033282;28;20505;-82
2021/11/19 06:42:23;;;;;;;14.63;7.53;;;8.00;99.90;;;;;;5026674;28;20402;-82
2021/11/19 06:44:49;;;;;;;17.20;8.48;;;7.00;99.90;;;;;;5021645;28;20029;-82
2021/11/19 06:47:17;;;;;;;17.98;10.27;;;6.90;99.90;;;;;;5024501;28;20026;-82
2021/11/19 06:49:44;;;;;;;19.42;10.10;;;6.90;99.90;;;;;;5028914;28;20112;-82
2021/11/19 06:52:09;;;;;;;22.13;10.93;;;6.70;99.90;;;;;;5012623;28;20025;-82
2021/11/19 06:54:36;;;;;;;18.27;10.43;;;6.80;99.90;;;;;;5022774;28;20478;-82
2021/11/19 06:57:03;;;;;;;22.65;11.07;;;6.80;99.90;;;;;;5018796;28;20030;-83
2021/11/19 06:59:28;;;;;;;20.85;10.15;;;6.70;99.90;;;;;;5032910;28;20041;-82
2021/11/19 07:01:54;;;;;;;26.67;11.15;;;7.80;99.90;;;;;;5025911;28;20053;-82
2021/11/19 07:04:20;;;;;;;24.15;11.20;;;6.70;99.90;;;;;;5035014;28;20462;-82
2021/11/19 07:06:46;;;;;;;24.50;11.90;;;6.70;99.90;;;;;;5037510;28;20100;-83
2021/11/19 07:09:15;;;;;;;21.95;10.95;;;6.60;99.90;;;;;;5028783;28;20046;-82
2021/11/19 07:11:41;;;;;;;20.63;11.30;;;8.20;99.90;;;;;;5037994;28;20111;-82
2021/11/19 07:14:07;;;;;;;24.83;10.85;;;8.20;99.90;;;;;;5033739;28;20026;-82
2021/11/19 07:16:34;;;;;;;22.98;11.35;;;6.70;99.90;;;;;;5018383;28;20029;-83
2021/11/19 07:19:00;;;;;;;21.60;10.98;;;6.80;99.90;;;;;;5017631;28;20052;-82
2021/11/19 07:21:27;;;;;;;20.88;11.02;;;7.60;99.90;;;;;;5024327;28;20037;-82
2021/11/19 07:23:54;;;;;;;22.45;12.02;;;8.20;99.90;;;;;;5020863;28;20037;-82
2021/11/19 07:26:23;;;;;;;24.75;10.98;;;6.80;99.90;;;;;;5004695;28;20088;-82
2021/11/19 07:28:50;;;;;;;19.92;10.15;;;7.50;99.90;;;;;;5008313;28;20164;-82
2021/11/19 07:31:16;;;;;;;24.27;11.80;;;6.80;99.90;;;;;;5042625;28;20026;-82
2021/11/19 07:33:43;;;;;;;20.10;10.02;;;7.00;99.90;;;;;;5041989;28;20026;-83
2021/11/19 07:36:11;;;;;;;21.10;11.02;;;7.70;99.90;;;;;;5043607;28;20036;-83
2021/11/19 07:38:37;;;;;;;22.27;10.95;;;6.80;99.90;;;;;;5033733;28;20455;-83
2021/11/19 07:41:05;;;;;;;21.50;11.07;;;6.90;99.90;;;;;;5017578;28;20037;-82
2021/11/19 07:43:33;;;;;;;20.00;10.10;;;7.00;99.90;;;;;;5035509;28;20025;-83
2021/11/19 07:46:00;;;;;;;23.80;11.23;;;6.90;99.90;;;;;;5025629;28;20078;-83
2021/11/19 07:48:29;;;;;;;27.95;10.30;;;6.90;99.90;;;;;;5031765;28;20037;-82
2021/11/19 07:50:57;;;;;;;24.63;11.20;;;6.90;99.90;;;;;;5020565;28;20448;-83
2021/11/19 07:53:24;;;;;;;27.60;11.13;;;7.10;99.90;;;;;;5022246;28;20048;-83
2021/11/19 07:55:52;;;;;;;26.77;10.43;;;7.10;99.90;;;;;;5038998;28;20030;-83
2021/11/19 07:58:19;;;;;;;23.27;9.93;;;7.10;99.90;;;;;;5005179;28;20022;-83
2021/11/19 08:00:47;;;;;;;22.42;11.07;;;7.10;99.90;;;;;;5023861;28;20037;-83
2021/11/19 08:03:13;;;;;;;22.50;11.02;;;7.10;99.90;;;;;;5037185;28;20029;-83
2021/11/19 08:05:42;;;;;;;24.00;10.70;;;7.20;99.90;;;;;;5034307;28;20080;-83
2021/11/19 08:08:08;;;;;;;21.05;10.52;;;7.20;99.90;;;;;;5034314;28;20022;-82
2021/11/19 08:10:34;;;;;;;26.23;11.00;;;7.30;99.90;;;;;;5038401;28;20041;-83
2021/11/19 08:12:59;;;;;;;21.98;10.57;;;8.10;99.90;;;;;;5021801;28;20034;-83
2021/11/19 08:15:30;;;;;;;19.70;10.02;;;7.40;99.90;;;;;;5027148;28;20045;-83
2021/11/19 08:17:57;;;;;;;23.80;10.40;;;9.20;99.90;;;;;;5017588;28;20045;-83
2021/11/19 08:20:37;;;;;;;19.80;10.43;;;7.50;99.90;;;;;;5016944;28;20562;-83
2021/11/19 08:23:05;;;;;;;21.05;10.40;;;8.20;99.90;;;;;;5017505;28;20060;-83
2021/11/19 08:25:31;;;;;;;17.33;10.10;;;7.60;99.90;;;;;;5017384;28;20026;-83
2021/11/19 08:27:58;;;;;;;16.58;10.27;;;7.60;99.90;;;;;;5018006;28;20037;-83
2021/11/19 08:30:33;;;;;;;20.90;10.15;;;7.50;99.90;;;;;;5021479;28;20144;-83
2021/11/19 08:33:01;;;;;;;21.02;10.73;;;7.70;99.90;;;;;;5037912;28;20029;-83
2021/11/19 08:35:28;;;;;;;21.63;9.63;;;9.50;99.90;;;;;;5037452;28;20040;-83
2021/11/19 08:37:55;;;;;;;24.42;9.98;;;7.60;99.90;;;;;;5028509;28;20364;-83
2021/11/19 08:40:22;;;;;;;18.83;9.90;;;8.70;99.90;;;;;;5016857;28;20034;-82
2021/11/19 08:42:48;;;;;;;23.58;10.60;;;7.70;99.90;;;;;;5028624;28;20041;-82
2021/11/19 08:45:18;;;;;;;17.42;9.27;;;8.70;99.90;;;;;;5024230;28;20054;-82
2021/11/19 08:47:44;;;;;;;16.92;8.93;;;8.40;99.90;;;;;;5026474;28;20069;-81
2021/11/19 08:50:11;;;;;;;25.10;10.15;;;7.70;99.90;;;;;;5042155;28;20025;-80
2021/11/19 08:52:36;;;;;;;24.13;10.30;;;9.30;99.90;;;;;;5031332;28;20463;-78
2021/11/19 08:55:07;;;;;;;18.23;10.10;;;7.90;99.90;;;;;;5022818;28;20038;-75
2021/11/19 08:57:33;;;;;;;18.50;9.88;;;8.00;99.90;;;;;;5013191;28;20022;-77
2021/11/19 08:59:59;;;;;;;16.08;8.63;;;8.00;99.90;;;;;;5036220;28;20087;-77
2021/11/19 09:02:26;;;;;;;17.02;9.60;;;8.70;99.90;;;;;;5040215;28;20040;-77
2021/11/19 09:04:54;;;;;;;20.08;9.85;;;8.20;99.90;;;;;;5022684;28;20029;-77
2021/11/19 09:07:20;;;;;;;19.25;9.85;;;8.00;99.90;;;;;;5016126;28;20422;-77
2021/11/19 09:09:47;;;;;;;18.75;9.32;;;8.00;99.90;;;;;;5017175;28;20030;-77
2021/11/19 09:12:15;;;;;;;17.00;8.73;;;8.00;99.90;;;;;;5034081;28;20101;-77
2021/11/19 09:14:41;;;;;;;13.70;8.68;;;8.20;99.90;;;;;;5034164;28;20060;-77
2021/11/19 09:17:15;;;;;;;14.50;8.77;;;7.90;99.90;;;;;;5023444;28;20029;-77
2021/11/19 09:19:57;;;;;;;19.08;9.40;;;7.90;99.90;;;;;;5023000;28;20022;-77
2021/11/19 09:22:41;;;;;;;17.87;9.47;;;8.10;99.90;;;;;;5031755;28;20017;-77
2021/11/19 09:25:11;;;;;;;16.75;8.68;;;8.00;99.90;;;;;;5013604;28;20668;-77
2021/11/19 09:27:39;;;;;;;17.02;9.32;;;8.10;99.90;;;;;;5012917;28;20030;-77
2021/11/19 09:30:25;;;;;;;19.40;8.73;;;9.30;99.90;;;;;;4995486;28;20040;-77
2021/11/19 09:32:53;;;;;;;16.73;8.80;;;8.10;99.90;;;;;;5020894;28;20030;-78
2021/11/19 09:35:22;;;;;;;20.08;10.10;;;8.10;99.90;;;;;;4996336;28;20023;-80
2021/11/19 09:37:51;;;;;;;18.42;10.30;;;8.10;99.90;;;;;;5013646;28;20044;-81
2021/11/19 09:40:20;;;;;;;17.75;8.88;;;8.20;99.90;;;;;;5023716;28;20025;-80
2021/11/19 09:43:13;;;;;;;18.20;8.85;;;8.40;99.90;;;;;;5022072;28;20117;-78
2021/11/19 09:46:06;;;;;;;18.52;9.52;;;8.20;99.90;;;;;;5022336;28;20057;-79
2021/11/19 09:48:50;;;;;;;17.83;8.20;;;8.10;99.90;;;;;;5031022;28;20367;-79
2021/11/19 09:51:19;;;;;;;18.30;8.98;;;8.30;99.90;;;;;;5015378;28;20026;-77
2021/11/19 09:54:26;;;;;;;19.55;8.93;;;8.20;99.90;;;;;;5012135;28;20533;-78
2021/11/19 09:56:51;;;;;;;17.27;7.10;;;8.20;99.90;;;;;;5012739;28;20026;-79
2021/11/19 09:59:27;;;;;;;16.90;8.00;;;8.20;99.90;;;;;;5030893;28;20048;-80
2021/11/19 10:01:55;;;;;;;15.70;7.13;;;8.10;99.90;;;;;;5028174;28;20025;-79
2021/11/19 10:04:58;;;;;;;15.85;8.10;;;8.20;99.90;;;;;;5019252;28;20057;-80
2021/11/19 10:07:48;;;;;;;13.90;7.55;;;8.20;99.90;;;;;;5024577;28;20029;-80
2021/11/19 10:10:32;;;;;;;14.35;7.53;;;8.10;99.90;;;;;;5027076;28;20093;-79
2021/11/19 10:13:24;;;;;;;14.35;8.15;;;8.20;99.90;;;;;;5030977;28;20052;-79
2021/11/19 10:15:56;;;;;;;14.50;8.02;;;8.40;99.90;;;;;;5045066;28;20056;-79
2021/11/19 10:18:39;;;;;;;15.10;8.10;;;8.40;99.90;;;;;;5041921;28;20025;-78
2021/11/19 10:21:25;;;;;;;;;;;8.50;99.90;;;;;;5050240;28;20096;-79
2021/11/19 10:23:56;;;;;;;13.43;7.13;;;8.60;99.90;;;;;;5049841;28;19909;-79
2021/11/19 10:26:23;;;;;;;15.32;7.13;;;8.50;99.90;;;;;;5036068;28;20117;-79
2021/11/19 10:28:57;;;;;;;13.20;7.70;;;8.60;99.90;;;;;;5038014;28;20018;-80
2021/11/19 10:31:24;;;;;;;12.25;6.95;;;8.40;99.90;;;;;;5009332;28;20053;-79
2021/11/19 10:34:16;;;;;;;16.58;6.90;;;8.40;99.90;;;;;;5033062;28;20041;-79
2021/11/19 10:37:22;;;;;;;17.58;7.40;;;8.50;99.90;;;;;;5004420;28;20385;-81
2021/11/19 10:40:15;;;;;;;17.05;7.55;;;9.10;99.90;;;;;;5018852;28;20053;-80
2021/11/19 10:42:59;;;;;;;13.85;6.45;;;8.50;99.90;;;;;;5018910;28;20034;-80
2021/11/19 10:45:43;;;;;;;14.43;6.70;;;8.50;99.90;;;;;;4998380;28;20033;-80
2021/11/19 10:48:24;;;;;;;15.48;6.28;;;8.50;99.90;;;;;;5010127;28;20061;-81
2021/11/19 10:51:26;;;;;;;13.32;6.43;;;8.60;99.90;;;;;;5022978;28;20018;-80
2021/11/19 10:54:36;;;;;;;14.48;6.50;;;8.50;99.90;;;;;;5021173;28;20025;-81
2021/11/19 10:57:24;;;;;;;13.77;6.70;;;8.60;99.90;;;;;;4980702;28;20061;-80
2021/11/19 11:00:12;;;;;;;11.00;5.65;;;8.60;99.90;;;;;;5026239;28;20057;-79
2021/11/19 11:02:40;;;;;;;12.63;5.88;;;8.70;99.90;;;;;;5042823;28;20025;-81
2021/11/19 11:05:30;;;;;;;17.27;5.85;;;8.70;99.90;;;;;;5034197;28;20022;-80
2021/11/19 11:08:27;;;;;;;11.25;5.55;;;8.80;99.90;;;;;;5035906;28;20026;-81
2021/11/19 11:11:03;;;;;;;11.27;5.72;;;8.80;99.90;;;;;;5005036;28;20097;-80
2021/11/19 11:13:42;;;;;;;11.50;5.03;;;8.80;99.90;;;;;;5012398;28;20034;-80
2021/11/19 11:16:29;;;;;;;9.90;5.60;;;8.80;99.90;;;;;;5023050;28;20075;-81
2021/11/19 11:19:25;;;;;;;11.70;5.93;;;8.70;99.90;;;;;;5037545;28;20030;-79
2021/11/19 11:21:50;;;;;;;10.45;5.82;;;8.70;99.90;;;;;;5029505;28;20526;-80
2021/11/19 11:24:33;;;;;;;10.88;5.78;;;8.80;99.90;;;;;;5029090;28;20065;-82
2021/11/19 11:27:10;;;;;;;11.57;5.70;;;8.50;99.90;;;;;;5038096;28;20053;-81
2021/11/19 11:29:55;;;;;;;10.68;5.93;;;8.70;99.90;;;;;;5018425;28;20526;-79
2021/11/19 11:32:48;;;;;;;12.70;6.57;;;8.70;99.90;;;;;;5048262;28;20030;-79
2021/11/19 11:35:31;;;;;;;15.40;6.90;;;8.80;99.90;;;;;;5050889;28;20025;-80
2021/11/19 11:38:18;;;;;;;10.55;6.10;;;8.70;99.90;;;;;;5051209;28;20053;-80
2021/11/19 11:40:49;;;;;;;15.90;7.82;;;8.70;99.90;;;;;;5017905;28;20033;-81
2021/11/19 11:43:32;;;;;;;10.80;7.00;;;9.10;99.90;;;;;;5037785;28;20030;-80
2021/11/19 11:46:24;;;;;;;15.88;7.82;;;8.70;99.90;;;;;;5030648;28;20033;-81
2021/11/19 11:49:21;;;;;;;18.23;6.78;;;8.70;99.90;;;;;;5019783;28;20032;-82
2021/11/19 11:52:08;;;;;;;13.13;6.45;;;8.70;99.90;;;;;;5001382;28;20383;-80
2021/11/19 11:54:43;;;;;;;16.45;6.93;;;8.80;99.90;;;;;;5046226;28;20052;-84
2021/11/19 11:57:20;;;;;;;14.00;6.60;;;8.70;99.90;;;;;;5041240;28;20022;-81
2021/11/19 12:00:35;;;;;;;12.40;6.15;;;8.70;99.90;;;;;;5026075;28;20059;-84
2021/11/19 12:03:28;;;;;;;11.95;6.60;;;8.80;99.90;;;;;;5008182;28;20049;-81
2021/11/19 12:05:56;;;;;;;;;;;8.80;99.90;;;;;;5019728;28;20025;-82
2021/11/19 12:08:38;;;;;;;12.18;6.13;;;8.80;99.90;;;;;;5022559;28;19905;-81
2021/11/19 12:11:13;;;;;;;9.60;6.28;;;8.80;99.90;;;;;;5030644;28;20030;-82
2021/11/19 12:13:43;;;;;;;14.18;6.85;;;8.70;99.90;;;;;;5014442;28;20093;-82
2021/11/19 12:16:30;;;;;;;10.85;6.20;;;9.40;99.90;;;;;;5021662;28;20072;-82
2021/11/19 12:19:25;;;;;;;13.00;6.53;;;8.80;99.90;;;;;;5016450;28;20100;-81
2021/11/19 12:22:00;;;;;;;13.48;6.15;;;8.90;99.90;;;;;;5017115;28;20045;-82
2021/11/19 12:24:31;;;;;;;11.35;6.50;;;;;;;;;;5039018;28;20632;-83
2021/11/19 12:27:33;;;;;;;15.75;6.35;;;;;;;;;;5032942;28;20109;-82
2021/11/19 12:30:17;;;;;;;14.93;6.07;;;;;;;;;;4973078;28;20034;-82
2021/11/19 12:32:49;;;;;;;11.27;6.82;;;;;;;;;;4980674;28;20081;-81
2021/11/19 12:35:19;;;;;;;11.13;5.63;;;;;;;;;;5011345;28;20053;-82
2021/11/19 12:37:52;;;;;;;11.25;6.03;;;;;;;;;;5018300;28;20156;-81
2021/11/19 12:40:25;;;;;;;10.68;5.40;;;;;;;;;;5016618;28;20030;-80
2021/11/19 12:42:56;;;;;;;11.02;5.68;;;;;;;;;;5016214;28;20049;-79
2021/11/19 12:45:24;;;;;;;10.25;5.93;;;;;;;;;;5019845;28;20034;-80
2021/11/19 12:48:13;;;;;;;8.98;5.78;;;;;;;;;;5017070;28;20030;-80
2021/11/19 12:50:44;;;;;;;12.93;5.80;;;;;;;;;;5036763;28;20071;-81
2021/11/19 12:53:32;;;;;;;11.05;5.57;;;;;;;;;;5046697;28;20044;-81
2021/11/19 12:56:01;;;;;;;12.30;5.60;;;;;;;;;;5008258;28;20064;-81
2021/11/19 12:58:38;;;;;;;9.35;5.00;;;;;;;;;;4999832;28;20042;-81
2021/11/19 13:01:10;;;;;;;11.75;5.80;;;;;;;;;;5032206;28;20018;-81
2021/11/19 13:03:48;;;;;;;8.35;5.22;;;8.90;99.90;;;;;;5011977;28;20113;-80
2021/11/19 13:06:27;;;;;;;10.38;5.07;;;8.80;99.90;;;;;;5013426;28;20046;-79
2021/11/19 13:09:06;;;;;;;9.60;5.47;;;8.90;99.90;;;;;;5014184;28;20021;-80
2021/11/19 13:11:32;;;;;;;8.90;5.60;;;9.90;99.90;;;;;;5023253;28;20026;-80
2021/11/19 13:14:30;;;;;;;8.00;4.80;;;8.90;99.90;;;;;;5017657;28;20101;-80